createdAt,value
2019-05-05T00:04:20.392Z,2.10
2019-05-05T00:09:26.266Z,1.50
2019-05-05T00:14:44.210Z,1.60
2019-05-05T00:19:49.820Z,2.27
2019-05-05T00:24:55.601Z,4.07
2019-05-05T00:30:01.446Z,3.30
2019-05-05T00:35:08.197Z,1.97
2019-05-05T00:40:14.251Z,2.40
2019-05-05T00:50:52.015Z,1.70
2019-05-05T00:55:57.765Z,2.13
2019-05-05T01:01:14.439Z,2.00
2019-05-05T01:06:25.444Z,1.53
2019-05-05T01:11:31.687Z,2.57
2019-05-05T01:16:38.623Z,2.12
2019-05-05T01:21:45.408Z,1.67
2019-05-05T01:26:52.162Z,1.70
2019-05-05T01:32:00.494Z,2.03
2019-05-05T01:37:15.167Z,1.77
2019-05-05T01:42:21.501Z,1.77
2019-05-05T01:47:27.137Z,2.00
2019-05-05T01:52:34.450Z,2.13
2019-05-05T01:57:41.108Z,2.42
2019-05-05T02:02:48.093Z,1.97
2019-05-05T02:07:55.278Z,1.77
2019-05-05T02:13:02.033Z,1.73
2019-05-05T02:18:08.105Z,1.70
2019-05-05T02:23:16.960Z,1.90
2019-05-05T02:28:24.780Z,2.00
2019-05-05T02:33:31.103Z,2.03
2019-05-05T02:38:37.448Z,2.27
2019-05-05T02:43:44.952Z,1.90
2019-05-05T02:48:55.089Z,2.10
2019-05-05T02:54:04.585Z,2.27
2019-05-05T02:59:16.073Z,1.77
2019-05-05T03:04:24.614Z,1.67
2019-05-05T03:09:34.703Z,1.63
2019-05-05T03:14:44.506Z,1.70
2019-05-05T03:19:50.902Z,2.03
2019-05-05T03:24:58.439Z,2.20
2019-05-05T03:30:05.402Z,1.77
2019-05-05T03:35:13.879Z,2.13
2019-05-05T03:40:24.647Z,2.10
2019-05-05T03:45:39.261Z,2.50
2019-05-05T03:50:46.326Z,2.53
2019-05-05T03:55:54.515Z,2.07
2019-05-05T04:01:25.229Z,2.03
2019-05-05T04:06:40.545Z,4.03
2019-05-05T04:11:46.924Z,2.07
2019-05-05T04:17:03.527Z,2.30
2019-05-05T04:22:09.897Z,1.90
2019-05-05T04:27:15.886Z,2.70
2019-05-05T04:32:24.288Z,2.03
2019-05-05T04:37:31.114Z,2.40
2019-05-05T04:42:37.125Z,2.37
2019-05-05T04:47:47.634Z,1.77
2019-05-05T04:52:54.924Z,1.90
2019-05-05T04:58:01.784Z,2.33
2019-05-05T05:03:27.187Z,1.93
2019-05-05T05:08:33.889Z,1.87
2019-05-05T05:13:40.599Z,2.33
2019-05-05T05:18:46.659Z,2.43
2019-05-05T05:23:53.720Z,2.00
2019-05-05T05:29:00.137Z,2.00
2019-05-05T05:34:06.586Z,1.87
2019-05-05T05:39:19.733Z,2.20
2019-05-05T05:44:38.204Z,1.87
2019-05-05T05:49:48.427Z,1.60
2019-05-05T05:54:54.212Z,2.23
2019-05-05T06:00:01.099Z,2.10
2019-05-05T06:05:07.634Z,1.97
2019-05-05T06:10:24.293Z,2.60
2019-05-05T06:15:24.596Z,2.10
2019-05-05T06:20:31.671Z,1.97
2019-05-05T06:25:38.295Z,1.57
2019-05-05T06:30:44.624Z,1.90
2019-05-05T06:35:53.613Z,1.70
2019-05-05T06:41:07.987Z,1.63
2019-05-05T06:46:15.793Z,1.60
2019-05-05T06:51:24.389Z,1.40
2019-05-05T06:56:31.049Z,0.95
2019-05-05T07:01:37.355Z,1.40
2019-05-05T07:06:53.472Z,0.70
2019-05-05T07:11:51.184Z,1.10
2019-05-05T07:16:56.992Z,1.40
2019-05-05T07:22:04.050Z,1.43
2019-05-05T07:27:11.195Z,1.17
2019-05-05T07:32:17.805Z,1.70
2019-05-05T07:37:24.031Z,1.50
2019-05-05T07:42:44.146Z,1.33
2019-05-05T07:47:51.267Z,1.57
2019-05-05T07:53:11.421Z,1.30
2019-05-05T07:58:06.617Z,1.50
2019-05-05T08:03:14.350Z,2.13
2019-05-05T08:08:20.795Z,1.80
2019-05-05T08:13:27.576Z,2.00
2019-05-05T08:18:46.707Z,1.55
2019-05-05T08:24:04.541Z,2.03
2019-05-05T08:29:28.549Z,1.20
2019-05-05T08:34:36.797Z,1.33
2019-05-05T08:39:42.287Z,1.30
2019-05-05T08:44:48.761Z,1.57
2019-05-05T08:49:55.402Z,1.90
2019-05-05T08:55:04.532Z,1.37
2019-05-05T09:00:11.177Z,1.50
2019-05-05T09:05:17.282Z,1.33
2019-05-05T09:10:24.444Z,1.30
2019-05-05T09:15:30.759Z,1.70
2019-05-05T09:20:37.073Z,1.00
2019-05-05T09:25:59.244Z,1.10
2019-05-05T09:31:06.880Z,1.00
2019-05-05T09:36:14.492Z,1.17
2019-05-05T09:41:20.686Z,1.23
2019-05-05T09:46:26.869Z,1.63
2019-05-05T09:51:34.730Z,1.43
2019-05-05T09:56:44.324Z,1.60
2019-05-05T10:01:51.099Z,1.70
2019-05-05T10:06:57.786Z,1.47
2019-05-05T10:12:04.933Z,1.23
2019-05-05T10:17:14.116Z,1.20
2019-05-05T10:22:20.202Z,1.17
2019-05-05T10:27:26.649Z,1.20
2019-05-05T10:32:32.636Z,1.40
2019-05-05T10:37:39.496Z,1.30
2019-05-05T10:42:53.988Z,1.20
2019-05-05T10:48:04.083Z,1.33
2019-05-05T10:53:13.859Z,1.20
2019-05-05T10:58:20.889Z,1.60
2019-05-05T11:03:26.856Z,1.40
2019-05-05T11:08:34.997Z,2.17
2019-05-05T11:13:49.648Z,1.50
2019-05-05T11:18:56.701Z,1.63
2019-05-05T11:24:06.385Z,1.50
2019-05-05T11:29:24.216Z,1.63
2019-05-05T11:34:30.902Z,1.43
2019-05-05T11:39:37.799Z,1.40
2019-05-05T11:44:47.468Z,1.10
2019-05-05T11:49:56.783Z,1.47
2019-05-05T11:55:12.814Z,1.17
2019-05-05T12:00:27.683Z,1.97
2019-05-05T12:05:33.771Z,1.20
2019-05-05T12:10:49.112Z,1.37
2019-05-05T12:16:09.557Z,1.40
2019-05-05T12:21:24.266Z,1.20
2019-05-05T12:26:44.013Z,1.25
2019-05-05T12:31:52.967Z,1.43
2019-05-05T12:37:09.380Z,1.17
2019-05-05T12:42:19.196Z,1.17
2019-05-05T12:47:38.693Z,0.90
2019-05-05T12:52:45.099Z,1.40
2019-05-05T12:57:51.579Z,0.90
2019-05-05T13:02:58.115Z,1.07
2019-05-05T13:08:06.533Z,1.10
2019-05-05T13:13:14.068Z,0.93
2019-05-05T13:18:20.354Z,1.07
2019-05-05T13:23:39.624Z,1.40
2019-05-05T13:28:46.005Z,1.20
2019-05-05T13:33:54.805Z,1.10
2019-05-05T13:39:03.468Z,1.10
2019-05-05T13:44:16.623Z,1.63
2019-05-05T13:49:38.890Z,1.30
2019-05-05T13:54:45.546Z,1.10
2019-05-05T13:59:54.568Z,2.17
2019-05-05T14:05:04.486Z,1.67
2019-05-05T14:10:10.807Z,1.50
2019-05-05T14:15:19.142Z,1.80
2019-05-05T14:20:26.627Z,1.67
2019-05-05T14:25:32.954Z,1.47
2019-05-05T14:30:57.772Z,1.20
2019-05-05T14:36:13.813Z,1.00
2019-05-05T14:41:20.107Z,1.40
2019-05-05T14:46:26.415Z,1.40
2019-05-05T14:51:34.157Z,1.40
2019-05-05T14:56:41.235Z,1.50
2019-05-05T15:01:48.633Z,1.20
2019-05-05T15:07:05.092Z,1.77
2019-05-05T15:12:20.411Z,1.90
2019-05-05T15:17:27.457Z,1.50
2019-05-05T15:22:37.142Z,1.53
2019-05-05T15:27:45.096Z,1.57
2019-05-05T15:32:54.022Z,1.20
2019-05-05T15:37:59.824Z,1.57
2019-05-05T15:43:06.000Z,1.30
2019-05-05T15:48:13.975Z,1.00
2019-05-05T15:53:23.416Z,1.30
2019-05-05T15:58:31.706Z,1.00
2019-05-05T16:03:38.130Z,1.50
2019-05-05T16:08:45.302Z,0.93
2019-05-05T16:13:51.459Z,1.23
2019-05-05T16:19:08.458Z,1.53
2019-05-05T16:24:19.206Z,2.03
2019-05-05T16:29:28.462Z,1.17
2019-05-05T16:40:38.162Z,0.97
2019-05-05T16:45:44.520Z,1.10
2019-05-05T16:50:50.637Z,1.40
2019-05-05T16:55:57.192Z,1.30
2019-05-05T17:01:03.800Z,1.23
2019-05-05T17:06:09.913Z,1.30
2019-05-05T17:11:16.043Z,1.20
2019-05-05T17:16:35.773Z,1.90
2019-05-05T17:21:50.240Z,1.45
2019-05-05T17:26:56.891Z,1.50
2019-05-05T17:32:03.108Z,1.50
2019-05-05T17:37:09.680Z,1.62
2019-05-05T17:42:26.818Z,1.53
2019-05-05T17:47:41.220Z,1.20
2019-05-05T17:52:53.750Z,1.63
2019-05-05T17:58:02.537Z,1.50
2019-05-05T18:03:09.181Z,1.50
2019-05-05T18:08:24.062Z,1.60
2019-05-05T18:13:44.198Z,1.30
2019-05-05T18:18:54.862Z,2.00
2019-05-05T18:24:01.381Z,1.70
2019-05-05T18:29:18.280Z,1.60
2019-05-05T18:34:28.425Z,1.45
2019-05-05T18:39:36.332Z,1.75
2019-05-05T18:44:46.323Z,1.53
2019-05-05T18:49:54.010Z,20.53
2019-05-05T18:55:00.854Z,49.60
2019-05-05T19:00:10.726Z,300.53
2019-05-05T19:05:31.838Z,369.90
2019-05-05T19:10:37.859Z,113.87
2019-05-05T19:15:44.643Z,210.20
2019-05-05T19:20:58.795Z,76.27
2019-05-05T19:26:18.173Z,11.27
2019-05-05T19:31:36.730Z,3.67
2019-05-05T19:36:44.955Z,2.10
2019-05-05T19:41:54.558Z,1.60
2019-05-05T19:47:18.111Z,1.73
2019-05-05T19:52:35.643Z,2.10
2019-05-05T19:57:47.219Z,2.83
2019-05-05T20:03:02.192Z,2.20
2019-05-05T20:08:03.978Z,1.93
2019-05-05T20:13:09.831Z,2.23
2019-05-05T20:18:19.212Z,4.00
2019-05-05T20:23:25.851Z,2.70
2019-05-05T20:28:33.862Z,2.72
2019-05-05T20:33:49.660Z,2.43
2019-05-05T20:38:56.700Z,3.40
2019-05-05T20:44:05.999Z,2.50
2019-05-05T20:49:24.522Z,2.70
2019-05-05T20:54:31.113Z,2.20
2019-05-05T20:59:40.932Z,2.40
2019-05-05T21:04:49.293Z,2.47
2019-05-05T21:09:55.571Z,2.63
2019-05-05T21:15:01.781Z,2.33
2019-05-05T21:20:07.774Z,2.23
2019-05-05T21:25:23.883Z,2.37
2019-05-05T21:30:30.131Z,2.57
2019-05-05T21:35:37.180Z,2.10
2019-05-05T21:40:44.063Z,2.00
2019-05-05T21:45:50.701Z,2.10
2019-05-05T21:51:10.231Z,2.60
2019-05-05T21:56:25.932Z,2.20
2019-05-05T22:01:39.490Z,3.15
2019-05-05T22:06:42.252Z,2.97
2019-05-05T22:11:48.940Z,2.53
2019-05-05T22:16:55.336Z,2.67
2019-05-05T22:22:04.896Z,2.70
2019-05-05T22:27:11.171Z,3.10
2019-05-05T22:32:22.320Z,2.60
2019-05-05T22:37:28.871Z,2.87
2019-05-05T22:42:49.342Z,2.45
2019-05-05T22:47:56.699Z,2.37
2019-05-05T22:53:02.931Z,2.90
2019-05-05T22:58:18.101Z,3.03
2019-05-05T23:03:32.107Z,1.80
2019-05-05T23:08:54.489Z,1.70
2019-05-05T23:14:10.035Z,2.10
2019-05-05T23:19:28.509Z,2.03
2019-05-05T23:24:43.474Z,2.45
2019-05-05T23:29:51.516Z,2.00
2019-05-05T23:34:57.620Z,2.10
2019-05-05T23:40:04.938Z,2.10
2019-05-05T23:45:25.047Z,1.73
2019-05-05T23:50:45.486Z,2.40
2019-05-05T23:55:54.429Z,2.40
